sensor_id;sensor_type;location;lat;lon;timestamp;temperature;humidity
21214;DHT22;10764;50.850;2.904;2023-04-24T00:00:56;22.50;48.00
21214;DHT22;10764;50.850;2.904;2023-04-24T00:03:24;22.20;48.50
21214;DHT22;10764;50.850;2.904;2023-04-24T00:05:54;22.20;47.50
21214;DHT22;10764;50.850;2.904;2023-04-24T00:08:22;22.20;46.80
21214;DHT22;10764;50.850;2.904;2023-04-24T00:10:51;22.20;47.30
21214;DHT22;10764;50.850;2.904;2023-04-24T00:13:20;22.30;47.50
21214;DHT22;10764;50.850;2.904;2023-04-24T00:15:50;22.40;47.70
21214;DHT22;10764;50.850;2.904;2023-04-24T00:18:20;22.20;48.10
21214;DHT22;10764;50.850;2.904;2023-04-24T00:20:48;22.20;47.50
21214;DHT22;10764;50.850;2.904;2023-04-24T00:23:16;22.20;48.10
21214;DHT22;10764;50.850;2.904;2023-04-24T00:25:43;22.20;47.80
21214;DHT22;10764;50.850;2.904;2023-04-24T00:28:12;22.20;47.60
21214;DHT22;10764;50.850;2.904;2023-04-24T00:30:42;22.20;47.50
21214;DHT22;10764;50.850;2.904;2023-04-24T00:33:10;22.30;47.70
21214;DHT22;10764;50.850;2.904;2023-04-24T00:35:38;22.20;47.90
21214;DHT22;10764;50.850;2.904;2023-04-24T00:38:06;22.60;48.30
21214;DHT22;10764;50.850;2.904;2023-04-24T00:40:36;22.20;47.50
21214;DHT22;10764;50.850;2.904;2023-04-24T00:43:04;22.20;47.50
21214;DHT22;10764;50.850;2.904;2023-04-24T00:45:32;22.20;48.40
21214;DHT22;10764;50.850;2.904;2023-04-24T00:48:01;22.20;48.00
21214;DHT22;10764;50.850;2.904;2023-04-24T00:50:30;22.30;48.30
21214;DHT22;10764;50.850;2.904;2023-04-24T00:53:07;22.20;47.50
21214;DHT22;10764;50.850;2.904;2023-04-24T00:55:36;22.20;48.40
21214;DHT22;10764;50.850;2.904;2023-04-24T00:58:05;22.20;47.10
21214;DHT22;10764;50.850;2.904;2023-04-24T01:00:32;22.20;47.30
21214;DHT22;10764;50.850;2.904;2023-04-24T01:03:04;22.20;47.30
21214;DHT22;10764;50.850;2.904;2023-04-24T01:05:33;22.20;47.10
21214;DHT22;10764;50.850;2.904;2023-04-24T01:08:01;22.30;47.30
21214;DHT22;10764;50.850;2.904;2023-04-24T01:10:31;22.20;46.70
21214;DHT22;10764;50.850;2.904;2023-04-24T01:13:02;22.20;46.60
21214;DHT22;10764;50.850;2.904;2023-04-24T01:15:31;22.20;47.50
21214;DHT22;10764;50.850;2.904;2023-04-24T01:18:01;22.30;47.50
21214;DHT22;10764;50.850;2.904;2023-04-24T01:20:28;22.20;47.70
21214;DHT22;10764;50.850;2.904;2023-04-24T01:22:57;21.50;46.90
21214;DHT22;10764;50.850;2.904;2023-04-24T01:25:28;22.60;48.10
21214;DHT22;10764;50.850;2.904;2023-04-24T01:28:00;22.50;48.30
21214;DHT22;10764;50.850;2.904;2023-04-24T01:30:28;22.20;47.90
21214;DHT22;10764;50.850;2.904;2023-04-24T01:32:58;22.20;46.90
21214;DHT22;10764;50.850;2.904;2023-04-24T01:35:26;22.20;48.20
21214;DHT22;10764;50.850;2.904;2023-04-24T01:37:54;22.20;48.00
21214;DHT22;10764;50.850;2.904;2023-04-24T01:40:27;22.20;48.60
21214;DHT22;10764;50.850;2.904;2023-04-24T01:42:58;22.20;47.50
21214;DHT22;10764;50.850;2.904;2023-04-24T01:45:26;22.20;47.70
21214;DHT22;10764;50.850;2.904;2023-04-24T01:47:55;22.20;47.90
21214;DHT22;10764;50.850;2.904;2023-04-24T01:50:24;22.20;46.80
21214;DHT22;10764;50.850;2.904;2023-04-24T01:52:54;22.20;47.80
21214;DHT22;10764;50.850;2.904;2023-04-24T01:55:25;22.20;47.70
21214;DHT22;10764;50.850;2.904;2023-04-24T01:57:55;22.20;48.10
21214;DHT22;10764;50.850;2.904;2023-04-24T02:00:24;22.40;46.90
21214;DHT22;10764;50.850;2.904;2023-04-24T02:02:54;22.20;48.40
21214;DHT22;10764;50.850;2.904;2023-04-24T02:05:22;22.20;47.80
21214;DHT22;10764;50.850;2.904;2023-04-24T02:07:50;22.20;47.60
21214;DHT22;10764;50.850;2.904;2023-04-24T02:10:17;22.20;47.80
21214;DHT22;10764;50.850;2.904;2023-04-24T02:12:48;22.30;47.70
21214;DHT22;10764;50.850;2.904;2023-04-24T02:15:16;19.20;47.20
21214;DHT22;10764;50.850;2.904;2023-04-24T02:17:44;22.20;47.20
21214;DHT22;10764;50.850;2.904;2023-04-24T02:20:14;22.20;48.40
21214;DHT22;10764;50.850;2.904;2023-04-24T02:22:41;22.20;48.30
21214;DHT22;10764;50.850;2.904;2023-04-24T02:25:10;22.20;48.80
21214;DHT22;10764;50.850;2.904;2023-04-24T02:27:38;22.20;48.60
21214;DHT22;10764;50.850;2.904;2023-04-24T02:30:11;22.20;47.90
21214;DHT22;10764;50.850;2.904;2023-04-24T02:32:39;22.30;48.30
21214;DHT22;10764;50.850;2.904;2023-04-24T02:35:12;22.20;48.00
21214;DHT22;10764;50.850;2.904;2023-04-24T02:37:42;22.40;47.80
21214;DHT22;10764;50.850;2.904;2023-04-24T02:40:12;22.20;48.60
21214;DHT22;10764;50.850;2.904;2023-04-24T02:42:41;22.40;49.80
21214;DHT22;10764;50.850;2.904;2023-04-24T02:45:09;22.20;48.60
21214;DHT22;10764;50.850;2.904;2023-04-24T02:47:39;22.10;48.00
21214;DHT22;10764;50.850;2.904;2023-04-24T02:50:08;22.20;48.90
21214;DHT22;10764;50.850;2.904;2023-04-24T02:52:35;22.50;48.00
21214;DHT22;10764;50.850;2.904;2023-04-24T02:55:03;22.50;48.40
21214;DHT22;10764;50.850;2.904;2023-04-24T02:57:32;22.20;47.60
21214;DHT22;10764;50.850;2.904;2023-04-24T02:59:59;22.10;48.60
21214;DHT22;10764;50.850;2.904;2023-04-24T03:02:27;22.20;47.90
21214;DHT22;10764;50.850;2.904;2023-04-24T03:04:57;22.20;47.90
21214;DHT22;10764;50.850;2.904;2023-04-24T03:07:26;22.20;48.70
21214;DHT22;10764;50.850;2.904;2023-04-24T03:09:53;22.10;48.60
21214;DHT22;10764;50.850;2.904;2023-04-24T03:12:20;22.10;48.10
21214;DHT22;10764;50.850;2.904;2023-04-24T03:14:47;22.10;48.10
21214;DHT22;10764;50.850;2.904;2023-04-24T03:17:14;22.10;49.80
21214;DHT22;10764;50.850;2.904;2023-04-24T03:19:42;22.20;47.90
21214;DHT22;10764;50.850;2.904;2023-04-24T03:22:12;22.60;48.70
21214;DHT22;10764;50.850;2.904;2023-04-24T03:24:43;22.10;47.90
21214;DHT22;10764;50.850;2.904;2023-04-24T03:27:14;22.20;49.00
21214;DHT22;10764;50.850;2.904;2023-04-24T03:29:52;22.10;48.20
21214;DHT22;10764;50.850;2.904;2023-04-24T03:32:28;22.10;47.80
21214;DHT22;10764;50.850;2.904;2023-04-24T03:34:57;22.10;49.30
21214;DHT22;10764;50.850;2.904;2023-04-24T03:37:25;22.10;48.60
21214;DHT22;10764;50.850;2.904;2023-04-24T03:40:06;22.10;49.90
21214;DHT22;10764;50.850;2.904;2023-04-24T03:42:36;22.10;47.40
21214;DHT22;10764;50.850;2.904;2023-04-24T03:45:08;22.10;49.10
21214;DHT22;10764;50.850;2.904;2023-04-24T03:47:39;22.10;47.40
21214;DHT22;10764;50.850;2.904;2023-04-24T03:50:09;22.10;49.70
21214;DHT22;10764;50.850;2.904;2023-04-24T03:52:40;22.50;48.10
21214;DHT22;10764;50.850;2.904;2023-04-24T03:55:09;22.10;48.80
21214;DHT22;10764;50.850;2.904;2023-04-24T03:57:45;22.20;48.80
21214;DHT22;10764;50.850;2.904;2023-04-24T04:00:20;22.10;49.20
21214;DHT22;10764;50.850;2.904;2023-04-24T04:02:56;22.10;48.00
21214;DHT22;10764;50.850;2.904;2023-04-24T04:05:30;22.10;48.90
21214;DHT22;10764;50.850;2.904;2023-04-24T04:07:57;22.30;48.30
21214;DHT22;10764;50.850;2.904;2023-04-24T04:10:26;22.10;48.70
21214;DHT22;10764;50.850;2.904;2023-04-24T04:12:54;22.10;48.60
21214;DHT22;10764;50.850;2.904;2023-04-24T04:15:21;22.10;48.90
21214;DHT22;10764;50.850;2.904;2023-04-24T04:17:54;22.10;49.30
21214;DHT22;10764;50.850;2.904;2023-04-24T04:20:23;22.20;48.40
21214;DHT22;10764;50.850;2.904;2023-04-24T04:22:50;22.20;48.20
21214;DHT22;10764;50.850;2.904;2023-04-24T04:25:24;22.10;47.90
21214;DHT22;10764;50.850;2.904;2023-04-24T04:27:54;22.10;49.20
21214;DHT22;10764;50.850;2.904;2023-04-24T04:30:23;22.10;47.50
21214;DHT22;10764;50.850;2.904;2023-04-24T04:32:57;22.10;48.30
21214;DHT22;10764;50.850;2.904;2023-04-24T04:35:26;22.10;47.10
21214;DHT22;10764;50.850;2.904;2023-04-24T04:37:54;22.10;48.10
21214;DHT22;10764;50.850;2.904;2023-04-24T04:40:44;22.50;48.00
21214;DHT22;10764;50.850;2.904;2023-04-24T04:43:13;22.10;46.80
21214;DHT22;10764;50.850;2.904;2023-04-24T04:45:50;22.20;47.50
21214;DHT22;10764;50.850;2.904;2023-04-24T04:48:30;23.80;47.70
21214;DHT22;10764;50.850;2.904;2023-04-24T04:51:00;22.20;48.40
21214;DHT22;10764;50.850;2.904;2023-04-24T04:53:27;22.20;48.30
21214;DHT22;10764;50.850;2.904;2023-04-24T04:55:54;22.10;47.60
21214;DHT22;10764;50.850;2.904;2023-04-24T04:58:27;22.10;46.90
21214;DHT22;10764;50.850;2.904;2023-04-24T05:00:59;22.20;49.20
21214;DHT22;10764;50.850;2.904;2023-04-24T05:03:30;22.10;47.50
21214;DHT22;10764;50.850;2.904;2023-04-24T05:06:10;22.10;47.00
21214;DHT22;10764;50.850;2.904;2023-04-24T05:08:39;22.10;47.30
21214;DHT22;10764;50.850;2.904;2023-04-24T05:11:12;22.10;47.70
21214;DHT22;10764;50.850;2.904;2023-04-24T05:13:40;22.10;49.00
21214;DHT22;10764;50.850;2.904;2023-04-24T05:16:14;22.10;47.70
21214;DHT22;10764;50.850;2.904;2023-04-24T05:18:44;22.10;47.00
21214;DHT22;10764;50.850;2.904;2023-04-24T05:21:15;22.10;46.60
21214;DHT22;10764;50.850;2.904;2023-04-24T05:23:47;22.10;46.90
21214;DHT22;10764;50.850;2.904;2023-04-24T05:26:21;22.00;47.50
21214;DHT22;10764;50.850;2.904;2023-04-24T05:28:50;22.10;47.40
21214;DHT22;10764;50.850;2.904;2023-04-24T05:31:17;22.10;49.00
21214;DHT22;10764;50.850;2.904;2023-04-24T05:33:44;22.20;48.30
21214;DHT22;10764;50.850;2.904;2023-04-24T05:36:12;22.20;47.80
21214;DHT22;10764;50.850;2.904;2023-04-24T05:38:40;22.20;47.70
21214;DHT22;10764;50.850;2.904;2023-04-24T05:41:08;22.20;47.70
21214;DHT22;10764;50.850;2.904;2023-04-24T05:43:35;22.20;47.70
21214;DHT22;10764;50.850;2.904;2023-04-24T05:46:02;22.20;47.60
21214;DHT22;10764;50.850;2.904;2023-04-24T05:48:29;22.10;47.50
21214;DHT22;10764;50.850;2.904;2023-04-24T05:50:56;22.10;47.40
21214;DHT22;10764;50.850;2.904;2023-04-24T05:53:24;22.10;47.40
21214;DHT22;10764;50.850;2.904;2023-04-24T05:55:51;22.20;47.40
21214;DHT22;10764;50.850;2.904;2023-04-24T05:58:18;22.10;47.40
21214;DHT22;10764;50.850;2.904;2023-04-24T06:00:46;22.10;47.40
21214;DHT22;10764;50.850;2.904;2023-04-24T06:03:14;22.10;47.30
21214;DHT22;10764;50.850;2.904;2023-04-24T06:05:41;22.20;47.30
21214;DHT22;10764;50.850;2.904;2023-04-24T06:08:09;22.20;47.20
21214;DHT22;10764;50.850;2.904;2023-04-24T06:10:38;22.20;47.20
21214;DHT22;10764;50.850;2.904;2023-04-24T06:13:07;22.20;47.10
21214;DHT22;10764;50.850;2.904;2023-04-24T06:15:36;22.20;47.00
21214;DHT22;10764;50.850;2.904;2023-04-24T06:18:09;22.20;47.00
21214;DHT22;10764;50.850;2.904;2023-04-24T06:20:38;22.20;47.00
21214;DHT22;10764;50.850;2.904;2023-04-24T06:23:08;22.20;47.50
21214;DHT22;10764;50.850;2.904;2023-04-24T06:25:35;22.20;46.60
21214;DHT22;10764;50.850;2.904;2023-04-24T06:28:03;22.20;46.40
21214;DHT22;10764;50.850;2.904;2023-04-24T06:30:30;22.20;46.40
21214;DHT22;10764;50.850;2.904;2023-04-24T06:32:57;22.20;46.40
21214;DHT22;10764;50.850;2.904;2023-04-24T06:35:44;22.20;46.30
21214;DHT22;10764;50.850;2.904;2023-04-24T06:38:11;22.20;46.30
21214;DHT22;10764;50.850;2.904;2023-04-24T06:40:38;22.20;46.20
21214;DHT22;10764;50.850;2.904;2023-04-24T06:43:05;22.20;46.10
21214;DHT22;10764;50.850;2.904;2023-04-24T06:45:34;22.20;46.00
21214;DHT22;10764;50.850;2.904;2023-04-24T06:48:01;22.20;46.00
21214;DHT22;10764;50.850;2.904;2023-04-24T06:50:28;22.20;46.00
21214;DHT22;10764;50.850;2.904;2023-04-24T06:52:55;22.20;46.00
21214;DHT22;10764;50.850;2.904;2023-04-24T06:55:22;22.20;45.90
21214;DHT22;10764;50.850;2.904;2023-04-24T06:57:49;22.20;45.90
21214;DHT22;10764;50.850;2.904;2023-04-24T07:00:16;22.30;45.80
21214;DHT22;10764;50.850;2.904;2023-04-24T07:02:44;22.30;45.90
21214;DHT22;10764;50.850;2.904;2023-04-24T07:05:11;22.30;45.90
21214;DHT22;10764;50.850;2.904;2023-04-24T07:07:39;22.30;45.80
21214;DHT22;10764;50.850;2.904;2023-04-24T07:10:07;22.30;45.70
21214;DHT22;10764;50.850;2.904;2023-04-24T07:12:35;22.30;45.70
21214;DHT22;10764;50.850;2.904;2023-04-24T07:15:02;22.30;45.70
21214;DHT22;10764;50.850;2.904;2023-04-24T07:17:29;22.30;45.70
21214;DHT22;10764;50.850;2.904;2023-04-24T07:19:57;22.30;45.70
21214;DHT22;10764;50.850;2.904;2023-04-24T07:22:24;22.30;45.60
21214;DHT22;10764;50.850;2.904;2023-04-24T07:24:51;22.30;45.50
21214;DHT22;10764;50.850;2.904;2023-04-24T07:27:18;22.30;45.50
21214;DHT22;10764;50.850;2.904;2023-04-24T07:29:45;22.30;45.50
21214;DHT22;10764;50.850;2.904;2023-04-24T07:32:12;22.30;45.50
21214;DHT22;10764;50.850;2.904;2023-04-24T07:34:39;22.30;45.50
21214;DHT22;10764;50.850;2.904;2023-04-24T07:37:07;22.30;45.60
21214;DHT22;10764;50.850;2.904;2023-04-24T07:39:34;22.30;45.50
21214;DHT22;10764;50.850;2.904;2023-04-24T07:42:01;22.30;45.40
21214;DHT22;10764;50.850;2.904;2023-04-24T07:44:29;22.30;45.40
21214;DHT22;10764;50.850;2.904;2023-04-24T07:46:56;22.30;45.40
21214;DHT22;10764;50.850;2.904;2023-04-24T07:49:23;22.30;45.40
21214;DHT22;10764;50.850;2.904;2023-04-24T07:51:50;22.30;45.40
21214;DHT22;10764;50.850;2.904;2023-04-24T07:54:17;22.30;45.30
21214;DHT22;10764;50.850;2.904;2023-04-24T07:56:44;22.30;45.20
21214;DHT22;10764;50.850;2.904;2023-04-24T07:59:11;22.30;45.20
21214;DHT22;10764;50.850;2.904;2023-04-24T08:01:38;22.30;45.10
21214;DHT22;10764;50.850;2.904;2023-04-24T08:04:06;22.30;45.10
21214;DHT22;10764;50.850;2.904;2023-04-24T08:06:33;22.30;45.20
21214;DHT22;10764;50.850;2.904;2023-04-24T08:09:00;22.30;45.10
21214;DHT22;10764;50.850;2.904;2023-04-24T08:11:27;22.30;45.20
21214;DHT22;10764;50.850;2.904;2023-04-24T08:13:54;22.30;45.10
21214;DHT22;10764;50.850;2.904;2023-04-24T08:16:22;22.30;45.00
21214;DHT22;10764;50.850;2.904;2023-04-24T08:18:51;22.30;45.00
21214;DHT22;10764;50.850;2.904;2023-04-24T08:21:18;22.30;45.00
21214;DHT22;10764;50.850;2.904;2023-04-24T08:23:46;22.30;44.90
21214;DHT22;10764;50.850;2.904;2023-04-24T08:26:13;22.30;44.90
21214;DHT22;10764;50.850;2.904;2023-04-24T08:28:40;22.30;44.90
21214;DHT22;10764;50.850;2.904;2023-04-24T08:31:07;22.30;44.80
21214;DHT22;10764;50.850;2.904;2023-04-24T08:33:34;22.30;44.80
21214;DHT22;10764;50.850;2.904;2023-04-24T08:36:05;22.40;44.70
21214;DHT22;10764;50.850;2.904;2023-04-24T08:38:33;22.40;44.60
21214;DHT22;10764;50.850;2.904;2023-04-24T08:41:01;22.30;44.60
21214;DHT22;10764;50.850;2.904;2023-04-24T08:43:28;22.40;44.60
21214;DHT22;10764;50.850;2.904;2023-04-24T08:45:56;22.40;44.60
21214;DHT22;10764;50.850;2.904;2023-04-24T08:48:23;22.40;45.20
21214;DHT22;10764;50.850;2.904;2023-04-24T08:50:58;22.40;45.30
21214;DHT22;10764;50.850;2.904;2023-04-24T08:53:26;22.30;44.60
21214;DHT22;10764;50.850;2.904;2023-04-24T08:55:54;22.30;44.60
21214;DHT22;10764;50.850;2.904;2023-04-24T08:58:25;22.30;44.60
21214;DHT22;10764;50.850;2.904;2023-04-24T09:00:55;22.40;44.60
21214;DHT22;10764;50.850;2.904;2023-04-24T09:03:22;22.40;44.60
21214;DHT22;10764;50.850;2.904;2023-04-24T09:05:50;22.40;44.60
21214;DHT22;10764;50.850;2.904;2023-04-24T09:08:18;22.40;44.70
21214;DHT22;10764;50.850;2.904;2023-04-24T09:10:46;22.30;44.60
21214;DHT22;10764;50.850;2.904;2023-04-24T09:13:16;22.30;44.50
21214;DHT22;10764;50.850;2.904;2023-04-24T09:15:43;22.30;44.60
21214;DHT22;10764;50.850;2.904;2023-04-24T09:18:10;22.30;44.60
21214;DHT22;10764;50.850;2.904;2023-04-24T09:21:08;22.30;44.60
21214;DHT22;10764;50.850;2.904;2023-04-24T09:23:36;22.30;44.60
21214;DHT22;10764;50.850;2.904;2023-04-24T09:26:03;22.30;44.70
21214;DHT22;10764;50.850;2.904;2023-04-24T09:28:36;22.40;44.60
21214;DHT22;10764;50.850;2.904;2023-04-24T09:31:13;22.40;44.50
21214;DHT22;10764;50.850;2.904;2023-04-24T09:34:03;22.40;44.40
21214;DHT22;10764;50.850;2.904;2023-04-24T09:36:43;22.40;44.40
21214;DHT22;10764;50.850;2.904;2023-04-24T09:39:12;22.50;44.30
21214;DHT22;10764;50.850;2.904;2023-04-24T09:41:48;22.50;44.30
21214;DHT22;10764;50.850;2.904;2023-04-24T09:44:19;22.40;44.20
21214;DHT22;10764;50.850;2.904;2023-04-24T09:46:58;22.40;44.10
21214;DHT22;10764;50.850;2.904;2023-04-24T09:49:26;22.40;44.10
21214;DHT22;10764;50.850;2.904;2023-04-24T09:52:08;22.50;44.10
21214;DHT22;10764;50.850;2.904;2023-04-24T09:54:34;22.50;44.40
21214;DHT22;10764;50.850;2.904;2023-04-24T09:57:03;22.40;44.10
21214;DHT22;10764;50.850;2.904;2023-04-24T09:59:30;22.40;44.10
21214;DHT22;10764;50.850;2.904;2023-04-24T10:02:00;22.50;44.10
21214;DHT22;10764;50.850;2.904;2023-04-24T10:04:28;22.50;44.10
21214;DHT22;10764;50.850;2.904;2023-04-24T10:06:56;22.50;44.10
21214;DHT22;10764;50.850;2.904;2023-04-24T10:09:26;22.40;44.10
21214;DHT22;10764;50.850;2.904;2023-04-24T10:11:54;22.40;44.00
21214;DHT22;10764;50.850;2.904;2023-04-24T10:14:23;22.40;44.10
21214;DHT22;10764;50.850;2.904;2023-04-24T10:16:53;22.50;44.10
21214;DHT22;10764;50.850;2.904;2023-04-24T10:19:20;22.50;44.10
21214;DHT22;10764;50.850;2.904;2023-04-24T10:21:47;22.50;44.00
21214;DHT22;10764;50.850;2.904;2023-04-24T10:24:18;22.50;43.90
21214;DHT22;10764;50.850;2.904;2023-04-24T10:26:47;22.50;43.80
21214;DHT22;10764;50.850;2.904;2023-04-24T10:29:18;22.50;43.80
21214;DHT22;10764;50.850;2.904;2023-04-24T10:31:45;22.60;43.80
21214;DHT22;10764;50.850;2.904;2023-04-24T10:34:16;22.50;43.80
21214;DHT22;10764;50.850;2.904;2023-04-24T10:36:47;22.60;44.60
21214;DHT22;10764;50.850;2.904;2023-04-24T10:39:16;22.60;43.80
21214;DHT22;10764;50.850;2.904;2023-04-24T10:41:43;22.60;43.80
21214;DHT22;10764;50.850;2.904;2023-04-24T10:44:13;22.60;43.80
21214;DHT22;10764;50.850;2.904;2023-04-24T10:46:45;22.60;43.70
21214;DHT22;10764;50.850;2.904;2023-04-24T10:49:12;22.60;43.70
21214;DHT22;10764;50.850;2.904;2023-04-24T10:51:50;22.60;43.80
21214;DHT22;10764;50.850;2.904;2023-04-24T10:54:25;22.60;43.90
21214;DHT22;10764;50.850;2.904;2023-04-24T10:56:52;22.60;43.90
21214;DHT22;10764;50.850;2.904;2023-04-24T10:59:34;22.60;43.90
21214;DHT22;10764;50.850;2.904;2023-04-24T11:02:01;22.60;43.90
21214;DHT22;10764;50.850;2.904;2023-04-24T11:04:30;22.60;43.80
21214;DHT22;10764;50.850;2.904;2023-04-24T11:06:58;22.60;43.80
21214;DHT22;10764;50.850;2.904;2023-04-24T11:09:31;22.60;43.80
21214;DHT22;10764;50.850;2.904;2023-04-24T11:12:10;22.60;43.80
21214;DHT22;10764;50.850;2.904;2023-04-24T11:17:37;22.70;43.80
21214;DHT22;10764;50.850;2.904;2023-04-24T11:20:09;22.60;44.40
21214;DHT22;10764;50.850;2.904;2023-04-24T11:22:54;22.70;43.80
21214;DHT22;10764;50.850;2.904;2023-04-24T11:25:22;22.60;43.80
21214;DHT22;10764;50.850;2.904;2023-04-24T11:28:03;22.60;43.70
21214;DHT22;10764;50.850;2.904;2023-04-24T11:30:31;22.60;43.70
21214;DHT22;10764;50.850;2.904;2023-04-24T11:33:04;22.60;43.70
21214;DHT22;10764;50.850;2.904;2023-04-24T11:35:36;22.60;43.70
21214;DHT22;10764;50.850;2.904;2023-04-24T11:38:06;22.60;43.70
21214;DHT22;10764;50.850;2.904;2023-04-24T11:40:51;22.60;43.70
21214;DHT22;10764;50.850;2.904;2023-04-24T11:43:19;22.60;43.70
21214;DHT22;10764;50.850;2.904;2023-04-24T11:45:49;22.60;43.60
21214;DHT22;10764;50.850;2.904;2023-04-24T11:48:20;22.50;43.70
21214;DHT22;10764;50.850;2.904;2023-04-24T11:50:50;22.50;44.00
21214;DHT22;10764;50.850;2.904;2023-04-24T11:53:19;22.50;44.20
21214;DHT22;10764;50.850;2.904;2023-04-24T11:55:48;22.50;44.30
21214;DHT22;10764;50.850;2.904;2023-04-24T11:58:20;22.50;44.30
21214;DHT22;10764;50.850;2.904;2023-04-24T12:00:56;22.50;44.20
21214;DHT22;10764;50.850;2.904;2023-04-24T12:03:23;22.50;44.30
21214;DHT22;10764;50.850;2.904;2023-04-24T12:05:50;22.50;44.20
21214;DHT22;10764;50.850;2.904;2023-04-24T12:08:28;22.50;44.10
21214;DHT22;10764;50.850;2.904;2023-04-24T12:10:55;22.50;44.00
21214;DHT22;10764;50.850;2.904;2023-04-24T12:13:22;22.50;43.90
21214;DHT22;10764;50.850;2.904;2023-04-24T12:15:50;22.50;43.90
21214;DHT22;10764;50.850;2.904;2023-04-24T12:18:17;22.50;43.80
21214;DHT22;10764;50.850;2.904;2023-04-24T12:20:44;22.50;43.80
21214;DHT22;10764;50.850;2.904;2023-04-24T12:23:11;22.50;43.70
21214;DHT22;10764;50.850;2.904;2023-04-24T12:25:38;22.50;43.70
21214;DHT22;10764;50.850;2.904;2023-04-24T12:30:44;22.60;43.70
21214;DHT22;10764;50.850;2.904;2023-04-24T12:33:11;22.60;43.80
21214;DHT22;10764;50.850;2.904;2023-04-24T12:35:40;22.50;43.70
21214;DHT22;10764;50.850;2.904;2023-04-24T12:38:13;22.60;43.90
21214;DHT22;10764;50.850;2.904;2023-04-24T12:40:42;22.50;44.10
21214;DHT22;10764;50.850;2.904;2023-04-24T12:43:19;22.60;44.20
21214;DHT22;10764;50.850;2.904;2023-04-24T12:45:49;22.60;44.50
21214;DHT22;10764;50.850;2.904;2023-04-24T12:48:16;22.60;44.70
21214;DHT22;10764;50.850;2.904;2023-04-24T12:50:44;22.60;45.60
21214;DHT22;10764;50.850;2.904;2023-04-24T12:53:14;22.60;44.90
21214;DHT22;10764;50.850;2.904;2023-04-24T12:55:41;22.60;45.00
21214;DHT22;10764;50.850;2.904;2023-04-24T12:58:09;22.60;44.90
21214;DHT22;10764;50.850;2.904;2023-04-24T13:00:36;22.50;44.80
21214;DHT22;10764;50.850;2.904;2023-04-24T13:03:03;22.60;44.70
21214;DHT22;10764;50.850;2.904;2023-04-24T13:05:30;22.50;44.60
21214;DHT22;10764;50.850;2.904;2023-04-24T13:07:57;22.60;44.80
21214;DHT22;10764;50.850;2.904;2023-04-24T13:10:24;22.60;45.00
21214;DHT22;10764;50.850;2.904;2023-04-24T13:12:57;22.60;45.20
21214;DHT22;10764;50.850;2.904;2023-04-24T13:15:24;22.70;45.10
21214;DHT22;10764;50.850;2.904;2023-04-24T13:17:51;22.60;45.10
21214;DHT22;10764;50.850;2.904;2023-04-24T13:20:18;22.70;45.00
21214;DHT22;10764;50.850;2.904;2023-04-24T13:22:45;22.60;44.90
21214;DHT22;10764;50.850;2.904;2023-04-24T13:25:12;22.60;44.80
21214;DHT22;10764;50.850;2.904;2023-04-24T13:27:39;22.60;44.80
21214;DHT22;10764;50.850;2.904;2023-04-24T13:30:06;22.60;44.70
21214;DHT22;10764;50.850;2.904;2023-04-24T13:32:33;22.60;44.60
21214;DHT22;10764;50.850;2.904;2023-04-24T13:35:02;22.60;44.50
21214;DHT22;10764;50.850;2.904;2023-04-24T13:37:29;22.60;44.50
21214;DHT22;10764;50.850;2.904;2023-04-24T13:39:56;22.60;44.40
21214;DHT22;10764;50.850;2.904;2023-04-24T13:42:23;22.60;44.30
21214;DHT22;10764;50.850;2.904;2023-04-24T13:44:52;22.60;44.20
21214;DHT22;10764;50.850;2.904;2023-04-24T13:47:20;22.60;44.20
21214;DHT22;10764;50.850;2.904;2023-04-24T13:49:47;22.60;44.10
21214;DHT22;10764;50.850;2.904;2023-04-24T13:52:14;22.60;44.00
21214;DHT22;10764;50.850;2.904;2023-04-24T13:54:41;22.50;43.90
21214;DHT22;10764;50.850;2.904;2023-04-24T13:57:08;22.50;43.80
21214;DHT22;10764;50.850;2.904;2023-04-24T13:59:35;22.60;43.90
21214;DHT22;10764;50.850;2.904;2023-04-24T14:02:01;22.60;43.90
21214;DHT22;10764;50.850;2.904;2023-04-24T14:04:28;22.60;43.90
21214;DHT22;10764;50.850;2.904;2023-04-24T14:06:55;22.60;43.80
21214;DHT22;10764;50.850;2.904;2023-04-24T14:09:22;22.60;43.80
21214;DHT22;10764;50.850;2.904;2023-04-24T14:11:49;22.60;44.50
21214;DHT22;10764;50.850;2.904;2023-04-24T14:14:16;22.60;43.80
21214;DHT22;10764;50.850;2.904;2023-04-24T14:16:43;22.60;43.70
21214;DHT22;10764;50.850;2.904;2023-04-24T14:19:10;22.60;43.70
21214;DHT22;10764;50.850;2.904;2023-04-24T14:21:37;22.60;43.70
21214;DHT22;10764;50.850;2.904;2023-04-24T14:24:03;22.50;43.60
21214;DHT22;10764;50.850;2.904;2023-04-24T14:26:30;22.50;43.50
21214;DHT22;10764;50.850;2.904;2023-04-24T14:28:57;22.60;43.60
21214;DHT22;10764;50.850;2.904;2023-04-24T14:31:41;22.50;43.50
21214;DHT22;10764;50.850;2.904;2023-04-24T14:34:09;22.50;43.40
21214;DHT22;10764;50.850;2.904;2023-04-24T14:36:36;22.60;43.40
21214;DHT22;10764;50.850;2.904;2023-04-24T14:39:03;22.50;43.40
21214;DHT22;10764;50.850;2.904;2023-04-24T14:41:33;22.60;43.50
21214;DHT22;10764;50.850;2.904;2023-04-24T14:44:04;22.60;43.60
21214;DHT22;10764;50.850;2.904;2023-04-24T14:46:31;22.60;43.60
21214;DHT22;10764;50.850;2.904;2023-04-24T14:48:58;22.50;43.50
21214;DHT22;10764;50.850;2.904;2023-04-24T14:51:26;22.50;43.50
21214;DHT22;10764;50.850;2.904;2023-04-24T14:53:53;22.50;43.40
21214;DHT22;10764;50.850;2.904;2023-04-24T14:56:20;22.50;43.40
21214;DHT22;10764;50.850;2.904;2023-04-24T14:58:47;22.50;43.20
21214;DHT22;10764;50.850;2.904;2023-04-24T15:01:13;22.60;43.20
21214;DHT22;10764;50.850;2.904;2023-04-24T15:03:43;22.50;43.10
21214;DHT22;10764;50.850;2.904;2023-04-24T15:06:10;22.50;43.80
21214;DHT22;10764;50.850;2.904;2023-04-24T15:08:37;22.50;43.10
21214;DHT22;10764;50.850;2.904;2023-04-24T15:11:04;22.60;43.10
21214;DHT22;10764;50.850;2.904;2023-04-24T15:13:31;22.50;43.00
21214;DHT22;10764;50.850;2.904;2023-04-24T15:15:58;22.50;43.00
21214;DHT22;10764;50.850;2.904;2023-04-24T15:18:25;22.50;42.90
21214;DHT22;10764;50.850;2.904;2023-04-24T15:20:52;22.50;42.90
21214;DHT22;10764;50.850;2.904;2023-04-24T15:23:19;22.50;42.90
21214;DHT22;10764;50.850;2.904;2023-04-24T15:25:45;22.50;42.90
21214;DHT22;10764;50.850;2.904;2023-04-24T15:28:12;22.50;43.00
21214;DHT22;10764;50.850;2.904;2023-04-24T15:30:40;22.50;43.00
21214;DHT22;10764;50.850;2.904;2023-04-24T15:33:07;22.50;43.00
21214;DHT22;10764;50.850;2.904;2023-04-24T15:35:33;22.50;43.60
21214;DHT22;10764;50.850;2.904;2023-04-24T15:38:01;22.50;42.90
21214;DHT22;10764;50.850;2.904;2023-04-24T15:40:28;22.50;42.90
21214;DHT22;10764;50.850;2.904;2023-04-24T15:42:55;22.50;42.70
21214;DHT22;10764;50.850;2.904;2023-04-24T15:45:22;22.50;42.80
21214;DHT22;10764;50.850;2.904;2023-04-24T15:47:50;22.50;42.70